createdAt,value
2022-12-14T00:01:30.100Z,99295.88
2022-12-14T00:03:57.028Z,99299.09
2022-12-14T00:06:29.352Z,99291.84
2022-12-14T00:08:58.322Z,99300.72
2022-12-14T00:11:25.742Z,99297.50
2022-12-14T00:13:57.419Z,99305.25
2022-12-14T00:16:26.153Z,99301.53
2022-12-14T00:18:54.844Z,99299.06
2022-12-14T00:21:22.326Z,99293.22
2022-12-14T00:23:50.696Z,99283.84
2022-12-14T00:26:18.782Z,99281.22
2022-12-14T00:28:46.863Z,99264.56
2022-12-14T00:31:14.137Z,99261.56
2022-12-14T00:33:41.084Z,99262.56
2022-12-14T00:36:09.949Z,99255.41
2022-12-14T00:38:36.978Z,99246.75
2022-12-14T00:41:05.127Z,99240.69
2022-12-14T00:43:32.786Z,99239.72
2022-12-14T00:46:02.204Z,99240.94
2022-12-14T00:48:31.632Z,99244.13
2022-12-14T00:50:58.971Z,99236.00
2022-12-14T00:53:25.635Z,99239.03
2022-12-14T00:55:52.409Z,99241.88
2022-12-14T00:58:21.320Z,99241.50
2022-12-14T01:00:59.384Z,99237.84
2022-12-14T01:03:26.848Z,99226.69
2022-12-14T01:05:54.041Z,99226.94
2022-12-14T01:08:21.280Z,99216.06
2022-12-14T01:10:48.977Z,99206.84
2022-12-14T01:13:15.719Z,99209.75
2022-12-14T01:15:42.534Z,99219.31
2022-12-14T01:18:09.281Z,99223.19
2022-12-14T01:20:36.318Z,99218.06
2022-12-14T01:23:02.897Z,99223.41
2022-12-14T01:25:29.605Z,99220.16
2022-12-14T01:27:56.614Z,99209.94
2022-12-14T01:30:23.457Z,99202.03
2022-12-14T01:32:50.124Z,99212.81
2022-12-14T01:35:17.265Z,99205.69
2022-12-14T01:37:44.419Z,99204.28
2022-12-14T01:40:11.551Z,99208.34
2022-12-14T01:42:39.383Z,99204.03
2022-12-14T01:45:06.776Z,99194.25
2022-12-14T01:47:42.959Z,99184.63
2022-12-14T01:50:44.161Z,99180.16
2022-12-14T01:53:20.440Z,99191.16
2022-12-14T01:55:52.663Z,99188.78
2022-12-14T01:58:28.857Z,99194.03
2022-12-14T02:00:59.883Z,99190.19
2022-12-14T02:03:50.332Z,99186.31
2022-12-14T02:06:25.096Z,99179.59
2022-12-14T02:08:53.791Z,99184.84
2022-12-14T02:11:39.029Z,99174.53
2022-12-14T02:14:05.635Z,99176.41
2022-12-14T02:16:32.575Z,99174.75
2022-12-14T02:18:59.182Z,99183.28
2022-12-14T02:22:02.915Z,99181.56
2022-12-14T02:24:48.769Z,99187.06
2022-12-14T02:27:32.912Z,99177.78
2022-12-14T02:30:05.029Z,99179.88
2022-12-14T02:32:59.581Z,99166.81
2022-12-14T02:35:31.070Z,99165.88
2022-12-14T02:38:16.716Z,99168.16
2022-12-14T02:40:52.520Z,99165.50
2022-12-14T02:43:25.452Z,99160.84
2022-12-14T02:46:14.084Z,99152.50
2022-12-14T02:48:49.123Z,99156.16
2022-12-14T02:51:40.737Z,99142.34
2022-12-14T02:54:17.786Z,99140.78
2022-12-14T02:56:51.423Z,99135.66
2022-12-14T02:59:19.312Z,99134.03
2022-12-14T03:01:50.080Z,99138.94
2022-12-14T03:04:18.886Z,99123.88
2022-12-14T03:07:02.584Z,99133.84
2022-12-14T03:09:31.567Z,99132.63
2022-12-14T03:12:07.870Z,99129.13
2022-12-14T03:14:40.758Z,99136.69
2022-12-14T03:17:17.631Z,99122.50
2022-12-14T03:19:52.528Z,99124.47
2022-12-14T03:22:26.248Z,99122.63
2022-12-14T03:24:58.473Z,99118.44
2022-12-14T03:27:32.885Z,99124.28
2022-12-14T03:30:09.672Z,99120.09
2022-12-14T03:32:42.771Z,99113.50
2022-12-14T03:35:24.036Z,99125.22
2022-12-14T03:38:03.798Z,99112.75
2022-12-14T03:40:42.215Z,99106.59
2022-12-14T03:43:20.270Z,99106.81
2022-12-14T03:45:57.645Z,99102.03
2022-12-14T03:48:24.313Z,99103.09
2022-12-14T03:51:38.227Z,99094.78
2022-12-14T03:54:20.093Z,99088.44
2022-12-14T03:56:57.314Z,99099.19
2022-12-14T03:59:54.088Z,99098.44
2022-12-14T04:02:30.683Z,99105.88
2022-12-14T04:05:08.309Z,99093.16
2022-12-14T04:08:11.553Z,99083.00
2022-12-14T04:11:05.815Z,99077.63
2022-12-14T04:14:01.958Z,99070.75
2022-12-14T04:16:53.750Z,99062.41
2022-12-14T04:19:26.906Z,99063.03
2022-12-14T04:21:58.696Z,99070.81
2022-12-14T04:25:07.234Z,99057.44
2022-12-14T04:27:47.064Z,99058.88
2022-12-14T04:30:14.925Z,99053.94
2022-12-14T04:33:22.150Z,99058.22
2022-12-14T04:35:50.318Z,99053.69
2022-12-14T04:38:22.040Z,99058.94
2022-12-14T04:40:55.796Z,99063.00
2022-12-14T04:43:28.113Z,99062.72
2022-12-14T04:46:07.990Z,99058.88
2022-12-14T04:48:41.880Z,99066.00
2022-12-14T04:51:13.514Z,99072.63
2022-12-14T04:53:44.100Z,99071.66
2022-12-14T04:56:20.372Z,99075.34
2022-12-14T04:58:47.266Z,99071.41
2022-12-14T05:01:54.490Z,99064.28
2022-12-14T05:04:34.128Z,99060.00
2022-12-14T05:07:25.146Z,99050.22
2022-12-14T05:10:04.625Z,99047.13
2022-12-14T05:12:43.004Z,99043.00
2022-12-14T05:15:18.931Z,99049.59
2022-12-14T05:17:45.987Z,99044.94
2022-12-14T05:20:15.563Z,99048.22
2022-12-14T05:22:42.455Z,99042.75
2022-12-14T05:25:09.385Z,99040.69
2022-12-14T05:27:36.500Z,99063.03
2022-12-14T05:30:04.859Z,99057.53
2022-12-14T05:32:32.445Z,99047.16
2022-12-14T05:34:59.401Z,99041.41
2022-12-14T05:37:26.264Z,99031.09
2022-12-14T05:39:53.958Z,99029.19
2022-12-14T05:42:20.618Z,99019.63
2022-12-14T05:44:47.398Z,99020.59
2022-12-14T05:47:14.424Z,99027.06
2022-12-14T05:49:41.108Z,99033.03
2022-12-14T05:52:08.212Z,99020.09
2022-12-14T05:54:35.033Z,99036.94
2022-12-14T05:57:01.729Z,99029.72
2022-12-14T05:59:28.472Z,99024.78
2022-12-14T06:01:55.213Z,99013.91
2022-12-14T06:04:22.435Z,99001.63
2022-12-14T06:06:50.409Z,98993.84
2022-12-14T06:09:18.082Z,99005.97
2022-12-14T06:11:46.436Z,99006.31
2022-12-14T06:14:13.930Z,99006.00
2022-12-14T06:16:42.466Z,98996.94
2022-12-14T06:19:10.523Z,98983.94
2022-12-14T06:21:39.412Z,98988.84
2022-12-14T06:24:07.724Z,98978.63
2022-12-14T06:26:42.171Z,98969.25
2022-12-14T06:29:22.446Z,98952.78
2022-12-14T06:31:49.877Z,98969.88
2022-12-14T06:34:16.825Z,98959.19
2022-12-14T06:36:43.504Z,98962.41
2022-12-14T06:39:15.571Z,98950.34
2022-12-14T06:41:42.692Z,98953.47
2022-12-14T06:44:14.242Z,98956.59
2022-12-14T06:46:41.695Z,98942.50
2022-12-14T06:49:13.639Z,98924.09
2022-12-14T06:51:40.839Z,98919.72
2022-12-14T06:54:10.127Z,98925.47
2022-12-14T06:56:37.809Z,98913.91
2022-12-14T06:59:05.332Z,98918.41
2022-12-14T07:01:32.098Z,98913.03
2022-12-14T07:03:59.672Z,98900.03
2022-12-14T07:06:28.697Z,98918.25
2022-12-14T07:08:56.948Z,98928.66
2022-12-14T07:11:24.535Z,98918.34
2022-12-14T07:13:51.687Z,98925.97
2022-12-14T07:16:24.644Z,98920.25
2022-12-14T07:18:53.324Z,98912.75
2022-12-14T07:21:21.265Z,98905.69
2022-12-14T07:23:49.340Z,98915.28
2022-12-14T07:26:19.075Z,98913.28
2022-12-14T07:28:46.092Z,98921.72
2022-12-14T07:31:19.321Z,98932.28
2022-12-14T07:33:46.059Z,98924.94
2022-12-14T07:36:15.798Z,98911.09
2022-12-14T07:38:44.503Z,98894.50
2022-12-14T07:41:22.051Z,98893.81
2022-12-14T07:43:50.729Z,98893.44
2022-12-14T07:46:20.867Z,98895.66
2022-12-14T07:48:50.923Z,98906.75
2022-12-14T07:51:21.326Z,98917.16
2022-12-14T07:53:48.968Z,98921.91
2022-12-14T07:56:21.564Z,98936.53
2022-12-14T07:58:48.734Z,98933.88
2022-12-14T08:01:24.536Z,98913.75
2022-12-14T08:04:01.157Z,98918.13
2022-12-14T08:06:29.873Z,98902.34
2022-12-14T08:08:57.608Z,98892.44
2022-12-14T08:11:25.475Z,98891.03
2022-12-14T08:13:57.042Z,98897.50
2022-12-14T08:16:24.502Z,98909.50
2022-12-14T08:18:53.883Z,98915.81
2022-12-14T08:21:22.069Z,98915.41
2022-12-14T08:23:49.882Z,98920.34
2022-12-14T08:26:17.064Z,98916.84
2022-12-14T08:28:43.752Z,98934.22
2022-12-14T08:31:16.331Z,98927.75
2022-12-14T08:33:44.138Z,98929.88
2022-12-14T08:36:16.562Z,98939.31
2022-12-14T08:38:43.849Z,98932.31
2022-12-14T08:41:13.732Z,98924.66
2022-12-14T08:43:40.928Z,98928.25
2022-12-14T08:46:09.474Z,98931.50
2022-12-14T08:48:36.498Z,98925.00
2022-12-14T08:51:09.546Z,98934.50
2022-12-14T08:53:37.691Z,98926.50
2022-12-14T08:56:05.893Z,98923.56
2022-12-14T08:58:33.827Z,98917.69
2022-12-14T09:01:03.273Z,98907.09
2022-12-14T09:03:30.308Z,98891.66
2022-12-14T09:05:57.281Z,98892.56
2022-12-14T09:08:24.077Z,98906.59
2022-12-14T09:10:53.818Z,98913.50
2022-12-14T09:13:21.839Z,98916.50
2022-12-14T09:15:57.915Z,98914.88
2022-12-14T09:18:24.765Z,98918.19
2022-12-14T09:20:54.332Z,98923.31
2022-12-14T09:23:23.167Z,98925.31
2022-12-14T09:26:04.684Z,98927.78
2022-12-14T09:28:33.123Z,98935.13
2022-12-14T09:31:05.718Z,98920.81
2022-12-14T09:33:33.697Z,98914.22
2022-12-14T09:36:06.381Z,98925.41
2022-12-14T09:38:35.364Z,98919.28
2022-12-14T09:41:07.443Z,98904.25
2022-12-14T09:43:39.448Z,98906.03
2022-12-14T09:46:13.058Z,98896.84
2022-12-14T09:48:42.057Z,98898.50
2022-12-14T09:51:15.170Z,98902.91
2022-12-14T09:53:45.110Z,98910.25
2022-12-14T09:56:16.080Z,98902.41
2022-12-14T09:58:51.759Z,98909.69
2022-12-14T10:01:22.212Z,98903.97
2022-12-14T10:04:06.174Z,98895.72
2022-12-14T10:07:05.659Z,98896.13
2022-12-14T10:09:40.071Z,98898.16
2022-12-14T10:12:18.984Z,98900.19
2022-12-14T10:14:59.744Z,98894.25
2022-12-14T10:17:43.280Z,98896.66
2022-12-14T10:20:17.894Z,98898.16
2022-12-14T10:22:49.434Z,98898.91
2022-12-14T10:25:24.796Z,98895.47
2022-12-14T10:28:12.923Z,98896.00
2022-12-14T10:30:43.955Z,98913.06
2022-12-14T10:33:29.410Z,98907.03
2022-12-14T10:36:32.174Z,98903.06
2022-12-14T10:39:01.870Z,98896.00
2022-12-14T10:41:43.612Z,98903.28
2022-12-14T10:44:39.801Z,98895.44
2022-12-14T10:47:06.471Z,98888.94
2022-12-14T10:50:14.003Z,98889.94
2022-12-14T10:52:42.859Z,98897.16
2022-12-14T10:55:28.277Z,98898.28
2022-12-14T10:57:55.722Z,98895.53
2022-12-14T11:00:23.329Z,98901.56
2022-12-14T11:02:54.746Z,98898.28
2022-12-14T11:05:41.601Z,98907.56
2022-12-14T11:08:08.672Z,98912.28
2022-12-14T11:10:39.142Z,98905.53
2022-12-14T11:13:12.694Z,98895.94
2022-12-14T11:15:51.134Z,98894.09
2022-12-14T11:18:17.869Z,98896.22
2022-12-14T11:20:57.244Z,98904.81
2022-12-14T11:23:26.933Z,98905.47
2022-12-14T11:26:02.162Z,98886.75
2022-12-14T11:28:36.999Z,98898.97
2022-12-14T11:31:08.172Z,98884.81
2022-12-14T11:33:55.991Z,98872.72
2022-12-14T11:36:41.261Z,98885.53
2022-12-14T11:39:13.935Z,98885.84
2022-12-14T11:41:46.508Z,98888.94
2022-12-14T11:44:16.974Z,98881.00
2022-12-14T11:46:59.056Z,98884.34
2022-12-14T11:49:28.314Z,98884.63
2022-12-14T11:52:12.320Z,98882.47
2022-12-14T11:54:42.862Z,98880.97
2022-12-14T11:57:22.609Z,98875.81
2022-12-14T12:00:06.451Z,98875.09
2022-12-14T12:02:47.309Z,98874.09
2022-12-14T12:05:18.064Z,98883.91
2022-12-14T12:07:50.787Z,98879.56
2022-12-14T12:10:25.627Z,98875.72
2022-12-14T12:13:00.676Z,98877.88
2022-12-14T12:15:40.131Z,98872.31
2022-12-14T12:18:18.997Z,98865.50
2022-12-14T12:20:57.404Z,98867.63
2022-12-14T12:23:42.198Z,98863.78
2022-12-14T12:26:52.497Z,98872.00
2022-12-14T12:29:25.330Z,98867.53
2022-12-14T12:32:03.894Z,98877.69
2022-12-14T12:35:11.460Z,98880.22
2022-12-14T12:37:47.724Z,98873.00
2022-12-14T12:40:34.386Z,98873.59
2022-12-14T12:43:13.088Z,98871.19
2022-12-14T12:45:46.519Z,98881.63
2022-12-14T12:48:29.089Z,98881.34
2022-12-14T12:51:02.152Z,98887.91
2022-12-14T12:53:38.980Z,98882.94
2022-12-14T12:56:13.370Z,98884.19
2022-12-14T12:58:40.849Z,98892.25
2022-12-14T13:01:34.174Z,98896.28
2022-12-14T13:04:10.999Z,98896.34
2022-12-14T13:06:44.486Z,98893.22
2022-12-14T13:09:33.216Z,98893.06
2022-12-14T13:12:02.311Z,98904.72
2022-12-14T13:14:49.632Z,98908.88
2022-12-14T13:17:27.837Z,98899.56
2022-12-14T13:19:58.305Z,98913.13
2022-12-14T13:22:33.527Z,98910.38
2022-12-14T13:25:18.210Z,98919.06
2022-12-14T13:28:02.738Z,98920.78
2022-12-14T13:30:55.787Z,98922.09
2022-12-14T13:33:51.418Z,98920.03
2022-12-14T13:36:24.273Z,98930.28
2022-12-14T13:39:12.545Z,98924.38
2022-12-14T13:42:06.627Z,98922.00
2022-12-14T13:44:57.024Z,98927.06
2022-12-14T13:47:45.836Z,98928.31
2022-12-14T13:50:41.888Z,98942.03
2022-12-14T13:53:29.010Z,98940.00
2022-12-14T13:55:58.776Z,98946.69
2022-12-14T13:58:34.061Z,98954.84
2022-12-14T14:01:22.891Z,98945.56
2022-12-14T14:03:56.297Z,98955.75
2022-12-14T14:06:29.140Z,98958.31
2022-12-14T14:08:56.017Z,98961.66
2022-12-14T14:11:43.781Z,98959.19
2022-12-14T14:14:43.189Z,98967.13
2022-12-14T14:17:24.370Z,98959.16
2022-12-14T14:19:54.857Z,98964.19
2022-12-14T14:22:25.311Z,98968.34
2022-12-14T14:25:01.438Z,98967.75
2022-12-14T14:27:37.495Z,98969.31
2022-12-14T14:30:38.027Z,98977.84
2022-12-14T14:33:48.079Z,98982.31
2022-12-14T14:36:27.124Z,98980.53
2022-12-14T14:38:55.850Z,98994.34
2022-12-14T14:41:27.696Z,99001.81
2022-12-14T14:43:57.861Z,99004.34
2022-12-14T14:46:37.587Z,99000.81
2022-12-14T14:49:06.739Z,99001.47
2022-12-14T14:51:35.797Z,99013.03
2022-12-14T14:54:46.296Z,99009.56
2022-12-14T14:57:53.382Z,98999.84
2022-12-14T15:00:20.069Z,99003.75
2022-12-14T15:02:47.192Z,99004.75
2022-12-14T15:08:20.681Z,99018.91
2022-12-14T15:10:48.198Z,99015.97
2022-12-14T15:13:20.933Z,99014.09
2022-12-14T15:15:51.165Z,99030.28
2022-12-14T15:18:32.874Z,99029.53
2022-12-14T15:21:07.987Z,99041.28
2022-12-14T15:23:53.854Z,99049.88
2022-12-14T15:26:28.430Z,99051.13
2022-12-14T15:28:58.251Z,99050.50
2022-12-14T15:31:34.784Z,99059.41
2022-12-14T15:34:03.162Z,99067.00
2022-12-14T15:36:42.329Z,99068.19
2022-12-14T15:39:43.500Z,99057.97
2022-12-14T15:42:16.799Z,99061.47
2022-12-14T15:44:51.622Z,99062.91
2022-12-14T15:47:31.287Z,99071.81
2022-12-14T15:50:28.399Z,99072.25
2022-12-14T15:53:27.704Z,99072.97
2022-12-14T15:56:01.882Z,99069.72
2022-12-14T15:58:38.728Z,99076.69
2022-12-14T16:01:17.815Z,99088.16
2022-12-14T16:03:49.280Z,99084.28
2022-12-14T16:06:17.350Z,99090.66
2022-12-14T16:09:11.492Z,99088.28
2022-12-14T16:11:43.464Z,99104.38
2022-12-14T16:14:43.940Z,99115.16
2022-12-14T16:17:18.030Z,99119.84
2022-12-14T16:19:59.472Z,99130.41
2022-12-14T16:22:32.753Z,99125.16
2022-12-14T16:25:05.593Z,99133.47
2022-12-14T16:27:36.646Z,99127.56
2022-12-14T16:30:23.583Z,99132.19
2022-12-14T16:33:21.192Z,99136.91
2022-12-14T16:35:59.338Z,99142.97
2022-12-14T16:38:26.164Z,99149.13
2022-12-14T16:40:57.495Z,99149.25
2022-12-14T16:43:41.287Z,99148.88
2022-12-14T16:46:16.132Z,99158.41
2022-12-14T16:48:45.748Z,99154.63
2022-12-14T16:51:32.712Z,99176.38
2022-12-14T16:54:22.100Z,99177.13
2022-12-14T16:56:53.156Z,99167.53
2022-12-14T16:59:23.514Z,99175.00
2022-12-14T17:01:51.202Z,99178.72
2022-12-14T17:04:20.902Z,99175.09
2022-12-14T17:06:56.815Z,99189.81
2022-12-14T17:09:26.093Z,99190.41
2022-12-14T17:11:57.367Z,99186.53
2022-12-14T17:14:24.763Z,99189.78
2022-12-14T17:17:01.844Z,99200.38
2022-12-14T17:19:37.725Z,99189.78
2022-12-14T17:22:09.857Z,99202.78
2022-12-14T17:24:37.419Z,99202.81
2022-12-14T17:27:05.352Z,99207.28
2022-12-14T17:29:33.200Z,99204.66
2022-12-14T17:32:03.916Z,99210.53
2022-12-14T17:34:30.958Z,99212.75
2022-12-14T17:36:57.606Z,99205.25
2022-12-14T17:39:24.850Z,99204.44
2022-12-14T17:41:52.092Z,99203.63
2022-12-14T17:44:20.483Z,99203.19
2022-12-14T17:46:49.746Z,99209.72
2022-12-14T17:49:17.039Z,99210.91
2022-12-14T17:51:46.945Z,99217.00
2022-12-14T17:54:16.515Z,99213.56
2022-12-14T17:56:46.582Z,99204.03
2022-12-14T17:59:13.527Z,99214.56
2022-12-14T18:01:41.777Z,99218.03
2022-12-14T18:04:08.936Z,99217.59
2022-12-14T18:06:36.137Z,99223.47
2022-12-14T18:09:05.534Z,99223.50
2022-12-14T18:11:32.806Z,99222.72
2022-12-14T18:14:02.504Z,99217.44
2022-12-14T18:16:29.628Z,99217.03
2022-12-14T18:18:57.952Z,99208.50
2022-12-14T18:21:28.515Z,99211.56
2022-12-14T18:23:57.232Z,99222.75
2022-12-14T18:26:26.041Z,99211.78
2022-12-14T18:28:54.642Z,99212.75
2022-12-14T18:31:33.543Z,99229.66
2022-12-14T18:34:00.646Z,99231.69
2022-12-14T18:36:27.616Z,99223.75
2022-12-14T18:38:55.376Z,99230.28
2022-12-14T18:41:25.531Z,99234.53
2022-12-14T18:43:55.621Z,99243.47
2022-12-14T18:46:23.520Z,99242.41
2022-12-14T18:48:50.582Z,99238.38
2022-12-14T18:51:23.380Z,99238.94
2022-12-14T18:53:50.996Z,99240.56
2022-12-14T18:56:18.410Z,99239.78
2022-12-14T18:58:46.370Z,99250.34
2022-12-14T19:01:16.017Z,99262.16
2022-12-14T19:03:43.479Z,99263.41
2022-12-14T19:09:08.924Z,99262.19
2022-12-14T19:11:39.996Z,99265.63
2022-12-14T19:14:07.922Z,99271.13
2022-12-14T19:16:35.062Z,99275.41
2022-12-14T19:19:02.565Z,99278.25
2022-12-14T19:21:31.024Z,99288.22
2022-12-14T19:23:59.516Z,99285.16
2022-12-14T19:26:28.609Z,99284.16
2022-12-14T19:28:56.963Z,99288.19
2022-12-14T19:31:25.312Z,99287.59
2022-12-14T19:33:52.018Z,99285.34
2022-12-14T19:36:19.951Z,99288.81
2022-12-14T19:38:49.446Z,99287.00
2022-12-14T19:41:20.016Z,99295.50
2022-12-14T19:43:47.599Z,99296.13
2022-12-14T19:46:18.176Z,99287.38
2022-12-14T19:48:45.455Z,99286.56
2022-12-14T19:51:13.438Z,99296.75
2022-12-14T19:53:42.676Z,99290.44
2022-12-14T19:56:13.280Z,99293.09
2022-12-14T19:58:40.349Z,99299.16
2022-12-14T20:01:12.930Z,99291.25
2022-12-14T20:03:40.542Z,99295.31
2022-12-14T20:06:07.999Z,99292.69
2022-12-14T20:08:36.885Z,99290.63
2022-12-14T20:11:10.085Z,99286.75
2022-12-14T20:13:37.403Z,99297.53
2022-12-14T20:16:04.421Z,99296.56
2022-12-14T20:18:31.785Z,99297.56
2022-12-14T20:21:08.088Z,99306.72
2022-12-14T20:23:37.045Z,99306.09
2022-12-14T20:26:10.732Z,99311.00
2022-12-14T20:28:37.537Z,99308.13
2022-12-14T20:31:07.204Z,99307.72
2022-12-14T20:33:35.310Z,99305.28
2022-12-14T20:36:03.555Z,99309.38
2022-12-14T20:38:30.260Z,99308.97
2022-12-14T20:41:04.805Z,99304.88
2022-12-14T20:43:36.647Z,99320.75
2022-12-14T20:46:04.830Z,99312.78
2022-12-14T20:48:32.534Z,99314.66
2022-12-14T20:51:02.094Z,99315.22
2022-12-14T20:53:30.873Z,99314.66
2022-12-14T20:56:02.785Z,99313.81
2022-12-14T20:58:29.402Z,99309.53
2022-12-14T21:00:56.009Z,99315.03
2022-12-14T21:03:22.768Z,99315.47
2022-12-14T21:05:49.559Z,99322.13
2022-12-14T21:08:17.315Z,99331.69
2022-12-14T21:10:43.949Z,99339.25
2022-12-14T21:13:10.531Z,99345.97
2022-12-14T21:15:37.315Z,99340.25
2022-12-14T21:18:04.110Z,99347.38
2022-12-14T21:20:30.720Z,99348.81
2022-12-14T21:22:57.442Z,99360.19
2022-12-14T21:25:24.423Z,99354.69
2022-12-14T21:27:51.044Z,99352.25
2022-12-14T21:30:18.358Z,99352.88
2022-12-14T21:32:45.006Z,99352.50
2022-12-14T21:35:13.170Z,99345.97
2022-12-14T21:37:39.964Z,99341.47
2022-12-14T21:40:08.511Z,99347.97
2022-12-14T21:42:35.137Z,99335.75
2022-12-14T21:45:02.525Z,99328.84
2022-12-14T21:47:30.983Z,99346.13
2022-12-14T21:49:57.810Z,99350.81
2022-12-14T21:52:26.251Z,99353.88
2022-12-14T21:54:53.138Z,99357.72
2022-12-14T21:57:42.902Z,99343.94
2022-12-14T22:00:16.318Z,99344.13
2022-12-14T22:02:43.137Z,99347.38
2022-12-14T22:05:10.953Z,99342.50
2022-12-14T22:07:37.643Z,99341.28
2022-12-14T22:10:04.953Z,99341.28
2022-12-14T22:12:31.785Z,99342.28
2022-12-14T22:14:58.414Z,99360.56
2022-12-14T22:17:25.347Z,99360.13
2022-12-14T22:19:54.291Z,99363.63
2022-12-14T22:22:21.580Z,99363.75
2022-12-14T22:24:49.471Z,99366.63
2022-12-14T22:27:16.803Z,99359.13
2022-12-14T22:29:43.417Z,99371.47
2022-12-14T22:32:11.982Z,99372.72
2022-12-14T22:34:38.843Z,99368.03
2022-12-14T22:37:05.880Z,99371.16
2022-12-14T22:39:32.499Z,99370.31
2022-12-14T22:41:59.109Z,99367.47
2022-12-14T22:44:25.890Z,99371.16
2022-12-14T22:46:52.771Z,99368.72
2022-12-14T22:49:19.734Z,99370.75
2022-12-14T22:51:47.236Z,99371.34
2022-12-14T22:54:22.356Z,99379.06
2022-12-14T22:56:55.176Z,99378.06
2022-12-14T22:59:30.307Z,99378.06
2022-12-14T23:01:58.698Z,99371.16
2022-12-14T23:04:25.787Z,99359.75
2022-12-14T23:06:53.136Z,99358.72
2022-12-14T23:09:38.477Z,99356.88
2022-12-14T23:12:24.242Z,99343.88
2022-12-14T23:15:09.557Z,99361.34
2022-12-14T23:17:54.762Z,99353.47
2022-12-14T23:20:40.237Z,99373.38
2022-12-14T23:23:26.787Z,99365.56
2022-12-14T23:26:12.432Z,99388.47
2022-12-14T23:28:58.194Z,99392.41
2022-12-14T23:31:43.372Z,99399.94
2022-12-14T23:34:29.072Z,99412.13
2022-12-14T23:37:19.881Z,99409.78
2022-12-14T23:40:06.380Z,99406.47
2022-12-14T23:42:51.538Z,99396.94
2022-12-14T23:45:37.405Z,99394.72
2022-12-14T23:48:22.687Z,99397.13
2022-12-14T23:51:07.974Z,99393.63
2022-12-14T23:53:53.349Z,99385.34
2022-12-14T23:56:38.539Z,99383.53
2022-12-14T23:59:29.936Z,99378.63
